createdAt,value
2024-04-14T00:02:52.279Z,12.35
2024-04-14T00:07:55.436Z,12.40
2024-04-14T00:12:58.486Z,12.43
2024-04-14T00:18:01.699Z,12.46
2024-04-14T00:23:05.493Z,12.50
2024-04-14T00:28:08.488Z,12.57
2024-04-14T00:33:11.455Z,12.62
2024-04-14T00:38:14.489Z,12.69
2024-04-14T00:43:17.611Z,12.74
2024-04-14T00:48:23.416Z,12.78
2024-04-14T00:53:26.516Z,12.82
2024-04-14T00:58:29.622Z,12.86
2024-04-14T01:03:34.371Z,12.91
2024-04-14T01:08:37.759Z,12.93
2024-04-14T01:13:40.764Z,12.94
2024-04-14T01:18:43.965Z,12.95
2024-04-14T01:23:46.989Z,12.94
2024-04-14T01:28:50.089Z,12.92
2024-04-14T01:33:53.366Z,12.89
2024-04-14T01:38:56.718Z,12.86
2024-04-14T01:43:59.856Z,12.85
2024-04-14T01:49:03.360Z,12.84
2024-04-14T01:54:06.786Z,12.83
2024-04-14T01:59:09.772Z,12.84
2024-04-14T02:04:12.801Z,12.84
2024-04-14T02:09:15.913Z,12.85
2024-04-14T02:14:19.100Z,12.89
2024-04-14T02:19:23.639Z,12.92
2024-04-14T02:24:30.730Z,12.95
2024-04-14T02:29:33.739Z,12.98
2024-04-14T02:34:36.966Z,12.99
2024-04-14T02:39:39.906Z,13.01
2024-04-14T02:44:42.891Z,13.05
2024-04-14T02:49:45.771Z,13.14
2024-04-14T02:54:48.697Z,13.23
2024-04-14T02:59:51.679Z,13.32
2024-04-14T03:04:54.778Z,13.39
2024-04-14T03:09:57.853Z,13.47
2024-04-14T03:15:00.810Z,13.51
2024-04-14T03:20:06.811Z,13.53
2024-04-14T03:25:10.206Z,13.54
2024-04-14T03:30:13.232Z,13.56
2024-04-14T03:35:16.223Z,13.61
2024-04-14T03:40:19.120Z,13.66
2024-04-14T03:45:24.610Z,13.70
2024-04-14T03:50:27.602Z,13.73
2024-04-14T03:55:32.536Z,13.77
2024-04-14T04:00:35.568Z,13.84
2024-04-14T04:05:38.552Z,13.92
2024-04-14T04:10:41.574Z,14.02
2024-04-14T04:15:55.158Z,14.12
2024-04-14T04:21:00.896Z,14.23
2024-04-14T04:26:04.346Z,14.29
2024-04-14T04:31:14.039Z,14.34
2024-04-14T04:36:19.012Z,14.36
2024-04-14T04:41:22.194Z,14.37
2024-04-14T04:46:25.028Z,14.40
2024-04-14T04:51:31.544Z,14.43
2024-04-14T04:56:34.644Z,14.47
2024-04-14T05:01:38.196Z,14.55
2024-04-14T05:06:41.194Z,14.63
2024-04-14T05:11:44.164Z,14.74
2024-04-14T05:16:47.064Z,14.88
2024-04-14T05:21:50.086Z,15.04
2024-04-14T05:26:52.984Z,15.18
2024-04-14T05:31:56.208Z,15.36
2024-04-14T05:36:59.250Z,15.54
2024-04-14T05:42:02.110Z,15.68
2024-04-14T05:47:05.354Z,15.70
2024-04-14T05:52:08.732Z,15.64
2024-04-14T05:57:11.740Z,15.57
2024-04-14T06:02:16.404Z,15.59
2024-04-14T06:07:19.310Z,15.64
2024-04-14T06:12:22.294Z,15.69
2024-04-14T06:17:25.404Z,15.74
2024-04-14T06:22:31.629Z,15.72
2024-04-14T06:27:34.516Z,15.63
2024-04-14T06:32:37.657Z,15.55
2024-04-14T06:37:40.824Z,15.46
2024-04-14T06:42:44.161Z,15.37
2024-04-14T06:47:47.271Z,15.31
2024-04-14T06:52:50.341Z,15.33
2024-04-14T06:57:53.367Z,15.42
2024-04-14T07:02:56.251Z,15.49
2024-04-14T07:07:59.259Z,15.54
2024-04-14T07:13:02.401Z,15.63
2024-04-14T07:18:05.877Z,15.85
2024-04-14T07:23:09.120Z,16.22
2024-04-14T07:28:12.099Z,16.50
2024-04-14T07:33:16.425Z,16.58
2024-04-14T07:38:19.365Z,16.67
2024-04-14T07:43:22.560Z,16.84
2024-04-14T07:48:25.658Z,16.93
2024-04-14T07:53:28.668Z,16.93
2024-04-14T07:58:31.600Z,16.88
2024-04-14T08:03:46.950Z,16.77
2024-04-14T08:08:56.848Z,16.61
2024-04-14T08:14:00.121Z,16.50
2024-04-14T08:19:03.875Z,16.52
2024-04-14T08:24:09.357Z,16.61
2024-04-14T08:29:12.254Z,16.68
2024-04-14T08:34:15.130Z,16.69
2024-04-14T08:39:18.165Z,16.85
2024-04-14T08:44:21.583Z,17.22
2024-04-14T08:49:25.318Z,17.41
2024-04-14T08:54:28.266Z,17.73
2024-04-14T08:59:32.557Z,18.00
2024-04-14T09:04:35.803Z,17.95
2024-04-14T09:09:38.752Z,18.17
2024-04-14T09:14:49.004Z,18.51
2024-04-14T09:19:51.749Z,18.62
2024-04-14T09:24:54.831Z,18.83
2024-04-14T09:29:58.162Z,19.33
2024-04-14T09:35:01.026Z,19.61
2024-04-14T09:40:10.439Z,19.57
2024-04-14T09:45:16.772Z,19.69
2024-04-14T09:50:24.548Z,19.92
2024-04-14T09:55:27.741Z,20.28
2024-04-14T10:00:31.570Z,20.45
2024-04-14T10:05:34.600Z,20.75
2024-04-14T10:10:38.342Z,21.06
2024-04-14T10:15:46.257Z,20.82
2024-04-14T10:20:49.696Z,20.34
2024-04-14T10:25:53.872Z,19.60
2024-04-14T10:31:04.715Z,18.69
2024-04-14T10:36:08.313Z,17.89
2024-04-14T10:41:17.946Z,17.16
2024-04-14T10:46:20.939Z,17.14
2024-04-14T10:51:24.466Z,17.40
2024-04-14T10:56:27.468Z,17.67
2024-04-14T11:01:31.889Z,17.69
2024-04-14T11:06:35.305Z,17.38
2024-04-14T11:11:38.972Z,16.98
2024-04-14T11:16:42.202Z,16.84
2024-04-14T11:21:48.508Z,17.06
2024-04-14T11:26:51.548Z,17.23
2024-04-14T11:31:54.558Z,17.50
2024-04-14T11:36:57.704Z,17.74
2024-04-14T11:42:00.698Z,17.92
2024-04-14T11:47:04.970Z,17.87
2024-04-14T11:52:10.588Z,17.72
2024-04-14T11:57:13.787Z,17.68
2024-04-14T12:02:16.950Z,17.77
2024-04-14T12:07:21.041Z,17.78
2024-04-14T12:12:24.155Z,17.57
2024-04-14T12:17:27.298Z,17.41
2024-04-14T12:22:30.366Z,17.46
2024-04-14T12:27:34.242Z,17.51
2024-04-14T12:32:37.725Z,17.45
2024-04-14T12:37:40.948Z,17.56
2024-04-14T12:42:44.984Z,17.62
2024-04-14T12:47:48.000Z,17.71
2024-04-14T12:52:51.063Z,17.72
2024-04-14T12:57:54.097Z,17.67
2024-04-14T13:02:57.121Z,17.58
2024-04-14T13:08:01.663Z,17.49
2024-04-14T13:13:04.914Z,17.52
2024-04-14T13:18:08.627Z,17.32
2024-04-14T13:23:11.604Z,16.92
2024-04-14T13:28:14.500Z,16.66
2024-04-14T13:33:17.598Z,16.43
2024-04-14T13:38:20.580Z,16.21
2024-04-14T13:43:24.411Z,16.02
2024-04-14T13:48:27.444Z,16.03
2024-04-14T13:53:30.626Z,16.09
2024-04-14T13:58:35.673Z,16.23
2024-04-14T14:03:39.128Z,16.37
2024-04-14T14:08:42.230Z,16.36
2024-04-14T14:13:48.491Z,16.16
2024-04-14T14:18:51.415Z,15.98
2024-04-14T14:23:54.394Z,15.96
2024-04-14T14:28:57.331Z,15.90
2024-04-14T14:34:19.332Z,15.78
2024-04-14T14:39:22.984Z,15.66
2024-04-14T14:44:26.090Z,15.66
2024-04-14T14:49:29.315Z,15.69
2024-04-14T14:54:32.327Z,15.62
2024-04-14T14:59:36.718Z,15.52
2024-04-14T15:04:39.737Z,15.43
2024-04-14T15:09:43.304Z,15.35
2024-04-14T15:14:46.287Z,15.25
2024-04-14T15:19:49.304Z,15.10
2024-04-14T15:24:52.446Z,15.01
2024-04-14T15:29:55.404Z,14.92
2024-04-14T15:34:58.443Z,14.79
2024-04-14T15:40:02.087Z,14.66
2024-04-14T15:45:05.909Z,14.55
2024-04-14T15:50:09.051Z,14.44
2024-04-14T15:55:12.780Z,14.34
2024-04-14T16:00:15.910Z,14.24
2024-04-14T16:05:19.223Z,14.14
2024-04-14T16:10:22.508Z,14.02
2024-04-14T16:15:25.654Z,13.89
2024-04-14T16:20:28.647Z,13.72
2024-04-14T16:25:32.620Z,13.49
2024-04-14T16:30:37.457Z,13.27
2024-04-14T16:35:40.531Z,13.07
2024-04-14T16:40:43.430Z,12.89
2024-04-14T16:45:46.971Z,12.69
2024-04-14T16:50:50.497Z,12.49
2024-04-14T16:55:53.483Z,12.28
2024-04-14T17:00:56.549Z,12.07
2024-04-14T17:05:59.491Z,11.87
2024-04-14T17:11:02.662Z,11.65
2024-04-14T17:16:05.750Z,11.43
2024-04-14T17:21:09.754Z,11.21
2024-04-14T17:26:12.647Z,11.01
2024-04-14T17:31:15.826Z,10.85
2024-04-14T17:36:18.861Z,10.69
2024-04-14T17:41:22.282Z,10.49
2024-04-14T17:46:25.291Z,10.26
2024-04-14T17:51:28.407Z,10.04
2024-04-14T17:56:31.399Z,9.83
2024-04-14T18:01:34.576Z,9.65
2024-04-14T18:06:37.884Z,9.50
2024-04-14T18:11:40.861Z,9.33
2024-04-14T18:16:44.192Z,9.12
2024-04-14T18:21:47.328Z,8.93
2024-04-14T18:26:50.571Z,8.77
2024-04-14T18:31:53.830Z,8.60
2024-04-14T18:36:56.933Z,8.40
2024-04-14T18:41:59.797Z,8.21
2024-04-14T18:47:02.842Z,8.05
2024-04-14T18:52:06.553Z,7.94
2024-04-14T18:57:09.563Z,7.86
2024-04-14T19:02:12.768Z,7.76
2024-04-14T19:07:16.002Z,7.65
2024-04-14T19:12:19.897Z,7.52
2024-04-14T19:17:26.601Z,7.44
2024-04-14T19:22:29.790Z,7.39
2024-04-14T19:27:33.644Z,7.37
2024-04-14T19:32:36.915Z,7.39
2024-04-14T19:37:40.045Z,7.41
2024-04-14T19:42:43.559Z,7.46
2024-04-14T19:47:47.205Z,7.58
2024-04-14T19:52:51.214Z,7.76
2024-04-14T19:57:54.779Z,7.90
2024-04-14T20:02:58.147Z,7.97
2024-04-14T20:08:01.157Z,8.00
2024-04-14T20:13:04.818Z,8.04
2024-04-14T20:18:07.839Z,8.17
2024-04-14T20:23:11.414Z,8.34
2024-04-14T20:28:14.878Z,8.47
2024-04-14T20:33:21.844Z,8.54
2024-04-14T20:38:24.965Z,8.55
2024-04-14T20:43:29.009Z,8.52
2024-04-14T20:48:31.897Z,8.48
2024-04-14T20:53:34.974Z,8.40
2024-04-14T20:58:38.569Z,8.28
2024-04-14T21:03:42.254Z,8.13
2024-04-14T21:08:47.122Z,7.99
2024-04-14T21:13:49.982Z,7.86
2024-04-14T21:18:53.775Z,7.72
2024-04-14T21:23:56.873Z,7.60
2024-04-14T21:28:59.905Z,7.54
2024-04-14T21:34:04.296Z,7.51
2024-04-14T21:39:07.269Z,7.46
2024-04-14T21:44:10.109Z,7.37
2024-04-14T21:49:13.366Z,7.24
2024-04-14T21:54:16.495Z,7.11
2024-04-14T21:59:20.462Z,7.00
2024-04-14T22:04:23.385Z,6.93
2024-04-14T22:09:26.533Z,6.90
2024-04-14T22:14:29.539Z,6.83
2024-04-14T22:19:32.437Z,6.74
2024-04-14T22:24:35.337Z,6.63
2024-04-14T22:29:38.245Z,6.52
2024-04-14T22:34:41.053Z,6.45
2024-04-14T22:39:43.961Z,6.37
2024-04-14T22:44:46.870Z,6.27
2024-04-14T22:49:50.067Z,6.13
2024-04-14T22:54:53.179Z,6.00
2024-04-14T22:59:56.185Z,5.91
2024-04-14T23:04:59.189Z,5.82
2024-04-14T23:10:02.359Z,5.74
2024-04-14T23:15:05.967Z,5.68
2024-04-14T23:20:09.479Z,5.61
2024-04-14T23:25:12.500Z,5.56
2024-04-14T23:30:15.558Z,5.49
2024-04-14T23:35:18.415Z,5.40
2024-04-14T23:40:21.538Z,5.32
2024-04-14T23:45:24.468Z,5.25
2024-04-14T23:50:27.684Z,5.22
2024-04-14T23:55:30.584Z,5.18
